Main page
Satellite images 10-day forecastsClimateMarine weather Cyclones Lightning AirportsFAQ Newsletter About
Weather : Europe Africa North America South America Asia Australia-Oceania Others
Languages Contact

Milan, Italy

Malpensa Airport

latitude: 45-37N, longitude: 008-44E, elevation: 234 m


METAR: LIMC 282350Z VRB01KT CAVOK 19/18 Q1022 NOSIG
TAF: LIMC 282300Z 2900/3006 VRB05KT CAVOK

Time: 02:11 (00:11 UTC)

Current weather observation

The report was made 21 minutes ago, at 23:50 UTC
Wind 1 kt from variable directions
Temperature 19°C
Humidity 94%
Pressure 1022 hPa
Visibility 10 km or more
no clouds below 1500 m and no cumulonimbus

Change units

Forecast

The report was made 1 hour and 11 minutes ago, at 23:00 UTC
Forecast valid from 29 at 00 UTC to 30 at 06 UTC
Wind 5 kt from variable directions
Visibility 10 km or more
no clouds below 1500 m and no cumulonimbus
The information on this site is subject to a disclaimer
Weather : Europe Africa North America South America Asia Australia-Oceania Others
Satellite images 10-day forecastsClimateMarine weather Cyclones Lightning AirportsFAQ Languages Contact Newsletter About